Last 30 Days

OV-Red Dog 6200'

Daily Data | America/Los_Angeles
as of 6/27/22 4:21 PM PDT
Date Daily Max Temp (°F) Time of Max Temp Daily Min Temp (°F) Time of Min Temp Daily Rain (In) New Snow (in) SnowDepth (in) Wind Spd (mph) Daily Max Wind (mph) Time of Max Wind Max Wind Dir (°) Max RH (%) Min RH (%) Wet Bulb (°F) WetB Hrs <28F (hrs) MinBV Day (V)
6/26/22 82.6 1141 44.7 0507 0.00 80.2 235.9 3.9 21.7 1557 N | 3 93 19 51.9 0.0 12.4
6/25/22 83.6 1403 43.0 0543 0.00 77.2 233.5 2.1 14.1 1736 SSE | 160 86 20 51.1 0.0 12.4
6/24/22 77.5 1227 40.3 0547 0.00 82.9 241.5 2.9 15.0 1656 N | 350 99 17 49.6 0.0 12.4
6/23/22 71.7 1128 47.1 2354 0.01 23.7 176.7 2.7 13.6 1422 NNW | 345 99 32 - 0.0 12.4
6/22/22 81.1 1254 39.0 0556 0.00 85.1 247.9 3.6 17.0 1941 NNW | 330 78 15 48.3 0.0 12.4
6/21/22 77.5 1720 36.1 0559 0.00 88.3 252.0 2.2 12.5 1321 ESE | 122 86 13 44.7 0.0 12.4
6/20/22 69.4 1714 33.6 0606 0.00 86.5 248.6 2.0 12.1 1056 S | 169 98 16 43.2 0.0 12.4
6/19/22 61.7 1252 28.8 0546 0.00 82.5 238.0 3.8 18.5 1722 N | 4 99 26 40.4 0.0 12.4
6/18/22 52.5 1547 33.2 2355 0.00 - 164.7 4.4 18.0 1017 NNE | 16 96 37 37.0 0.0 12.4
6/17/22 53.9 0010 39.2 2208 0.00 81.6 240.2 10.2 27.9 1124 N | 9 76 13 37.6 0.0 12.4
6/16/22 69.0 1328 53.3 2358 0.00 80.1 237.6 11.5 34.6 1814 NNW | 344 48 19 47.0 0.0 12.4
6/15/22 76.5 1428 35.8 0537 0.00 80.4 237.8 4.2 20.8 1754 NNE | 23 88 18 46.4 0.0 12.4
6/14/22 66.7 1548 29.9 0529 0.00 77.3 230.3 3.3 17.7 1242 NNW | 348 96 13 41.4 0.0 12.4
6/13/22 59.2 1902 35.8 0608 0.00 76.9 230.7 4.7 21.6 1325 NNW | 336 99 35 42.6 0.0 12.4
6/12/22 62.1 0012 47.6 2106 0.00 - 93.5 9.1 33.1 1317 NNW | 339 92 44 - 0.0 12.4
6/11/22 74.8 1446 44.3 0600 0.00 74.4 227.4 5.7 22.2 1657 NE | 44 87 29 51.8 0.0 12.4
6/10/22 79.8 1523 44.6 0548 0.00 79.2 235.8 4.8 23.1 1343 NW | 306 96 16 51.4 0.0 12.4
6/9/22 79.6 1249 43.3 0516 0.00 80.9 238.6 2.9 16.7 1331 NNE | 26 92 28 52.4 0.0 12.4
6/8/22 71.6 1533 40.8 0448 0.00 82.9 242.4 4.5 22.4 1533 NE | 44 80 16 47.3 0.0 12.4
6/7/22 73.5 1420 32.3 0601 0.00 87.2 248.4 2.7 15.8 1245 NNE | 18 83 11 43.5 0.0 12.4
6/6/22 67.3 1455 36.2 0626 0.00 90.4 254.0 3.4 19.0 1347 NNW | 345 99 18 - 0.0 12.4
6/5/22 56.5 1443 45.7 0214 0.00 43.5 203.1 8.4 24.8 1734 NNW | 347 92 65 - 0.0 12.4
6/4/22 52.8 1230 43.9 0820 0.00 - 154.6 5.8 20.0 1221 NNW | 348 88 52 44.5 0.0 12.4
6/3/22 63.4 1247 42.9 0530 0.00 88.3 249.2 6.9 29.0 1643 NNE | 23 87 35 46.5 0.0 12.4
6/2/22 68.5 1307 38.3 0530 0.00 89.3 252.7 4.7 21.9 1211 N | 1 87 25 45.3 0.0 12.4
6/1/22 70.3 1433 31.6 0544 0.00 64.6 247.5 3.5 15.9 1534 NE | 44 87 21 43.0 0.0 12.4
5/31/22 64.4 1746 27.9 0554 0.00 86.7 248.3 2.6 15.2 1203 SSE | 153 97 21 38.4 2.1 12.4
5/30/22 55.2 1359 31.2 0455 0.00 86.1 246.2 4.0 17.6 2127 SSW | 205 94 35 38.0 0.0 12.4
5/29/22 54.8 1506 37.5 0518 0.00 87.3 249.8 7.3 20.4 1244 WNW | 290 86 34 39.8 0.0 12.4
5/28/22 53.6 1237 39.7 0505 0.00 - - 10.7 27.5 1402 NNW | 342 92 54 42.3 0.0 12.4
Max 83.6 - 53.3 - 0.01 90.4 254.0 11.5 34.6 - - 99 65 52.4 2.1 12.4
Avg - - - - - 78.6 227.8 5.0 - - - - - 44.8 - -
Min 52.5 - 27.9 - 0.00 23.7 93.5 2.0 12.1 - - 48 11 37.0 0.0 12.4